Spiegelgracht — PCEO — position and weather

sailwx.info

Track history (hours):
 
Tides and Currents Weather Stations Pressure Air Temp Water Temp Dewpoint Dewpoint Depression Visibility Wind Speed Wind Dir Waves Ship Positions

Spiegelgracht

Last reported at 2019-Jan-22 02:50 UTC. Time now 2019-Jan-23 01:19 UTC.
Position N 53°52' E 004°60'.

Length 168 m; beam 25 m.

Type: Cargo ship. MMSI: 245789000.

Date/timePositionNaut miles runAvg speedWind from/ knotsBaromVisibWave heightAir tempDewpointWater temp
2019-Jan-22 02:50N 53°52' E 004°60'411.9
2019-Jan-22 02:30N 53°48' E 004°57'612.0
2019-Jan-22 02:00N 53°43' E 004°53'612.0
2019-Jan-22 01:30N 53°37' E 004°50'611.8
2019-Jan-22 01:00N 53°31' E 004°46'611.8
2019-Jan-22 00:30N 53°26' E 004°43'611.6
2019-Jan-22 00:00N 53°20' E 004°40'611.7
2019-Jan-21 23:30N 53°15' E 004°35'611.6
2019-Jan-21 23:00N 53°10' E 004°31'611.4
2019-Jan-21 22:30N 53°05' E 004°26'611.2
2019-Jan-21 22:00N 53°00' E 004°22'611.1
2019-Jan-21 21:30N 52°55' E 004°18'611.0
2019-Jan-21 21:00N 52°51' E 004°13'510.8
2019-Jan-21 20:30N 52°46' E 004°09'611.0
2019-Jan-21 20:00N 52°42' E 004°03'611.3
2019-Jan-21 19:30N 52°38' E 003°56'611.6
2019-Jan-21 19:00N 52°34' E 003°50'612.0
2019-Jan-21 18:30N 52°29' E 003°42'612.3
2019-Jan-21 18:01N 52°25' E 003°35'612.6
2019-Jan-21 17:30N 52°21' E 003°28'712.9
2019-Jan-21 17:00N 52°16' E 003°21'713.1
2019-Jan-21 16:30N 52°11' E 003°14'1215.3
2019-Jan-21 15:44N 52°02' E 003°01'313.5
2019-Jan-21 15:30N 51°60' E 002°58'1513.7
2019-Jan-21 14:26N 51°49' E 002°42'713.9
2019-Jan-21 13:56N 51°43' E 002°35'714.1
2019-Jan-21 13:28N 51°38' E 002°28'714.0
2019-Jan-21 12:59N 51°33' E 002°21'714.0
2019-Jan-21 12:30N 51°28' E 002°13'1113.5
2019-Jan-21 11:41N 51°18' E 002°07'313.7
2019-Jan-21 11:27N 51°15' E 002°05'612.8
2019-Jan-21 11:00N 51°12' E 001°58'713.4
2019-Jan-21 10:30N 51°08' E 001°49'712.9
2019-Jan-21 09:56N 51°03' E 001°41'612.2
2019-Jan-21 09:25N 50°59' E 001°33'511.5
2019-Jan-21 08:58N 50°55' E 001°27'510.6
2019-Jan-21 08:30N 50°51' E 001°25'610.7
2019-Jan-21 07:59N 50°45' E 001°23'3910.3
2019-Jan-21 04:09N 50°25' E 000°30'710.4
2019-Jan-21 03:30N 50°23' E 000°19'510.3
2019-Jan-21 03:00N 50°21' E 000°12'5 9.9
2019-Jan-21 02:30N 50°20' E 000°04'5 9.8
2019-Jan-21 02:00N 50°19' W 000°03'5 9.8
2019-Jan-21 01:30N 50°17' W 000°10'5 9.7
2019-Jan-21 01:00N 50°16' W 000°18'5 9.7
2019-Jan-21 00:30N 50°15' W 000°25'5 9.8
2019-Jan-21 00:00N 50°14' W 000°32'2142.4
2019-Jan-21 00:00N 50°12' W 000°30'613.2 060 / 151023.8 5.4 5.7-0.510.4
2019-Jan-20 23:30N 50°12' W 000°40'510.7
2019-Jan-20 23:00N 50°11' W 000°48'611.4
2019-Jan-20 22:30N 50°09' W 000°57'612.4
2019-Jan-20 22:01N 50°08' W 001°06'713.1
2019-Jan-20 21:30N 50°06' W 001°16'713.8
2019-Jan-20 21:00N 50°04' W 001°26'714.5
2019-Jan-20 20:30N 50°02' W 001°37'815.1
2019-Jan-20 20:00N 49°60' W 001°48'815.4
2019-Jan-20 19:30N 49°58' W 001°60'815.3
2019-Jan-20 19:00N 49°56' W 002°11'914.7
2019-Jan-20 18:25N 49°54' W 002°24'614.1
2019-Jan-20 17:59N 49°52' W 002°33'713.7
2019-Jan-20 17:30N 49°50' W 002°43'713.3
2019-Jan-20 17:00N 49°48' W 002°53'813.6
2019-Jan-20 16:23N 49°44' W 003°04'615.8
2019-Jan-20 16:00N 49°41' W 003°12'5112.8
2019-Jan-20 12:00N 49°12' W 004°18'19 9.8 040 / 151018.310.8 10.3 3.911.2
2019-Jan-20 10:04N 49°06' W 004°45'310.3
2019-Jan-20 09:46N 49°04' W 004°49'310.2
2019-Jan-20 09:30N 49°03' W 004°53'510.2
2019-Jan-20 09:00N 49°00' W 004°59'510.2
2019-Jan-20 08:30N 48°58' W 005°06'510.2
2019-Jan-20 08:00N 48°55' W 005°13'510.4
2019-Jan-20 07:31N 48°53' W 005°20'510.6
2019-Jan-20 07:01N 48°50' W 005°27'510.9
2019-Jan-20 06:30N 48°47' W 005°34'510.7
2019-Jan-20 06:00N 48°43' W 005°39'7512.5
2019-Jan-20 00:00N 47°36' W 006°30'6611.1 300 / 211011.4 5.4 10.3 3.212.1
2019-Jan-19 18:00N 46°36' W 007°12'7412.3 340 / 151009.010.8 11.6 6.612.6
2019-Jan-19 12:00N 45°30' W 008°00'7412.4 190 / 151008.4 5.4 10.3 3.712.8
2019-Jan-19 06:00N 44°24' W 008°48'6711.2 230 / 161010.6 2.2 12.111.812.7
2019-Jan-19 00:00N 43°24' W 009°30'7813.1 280 / 151017.2 5.4 12.8 6.913.3
2019-Jan-18 18:00N 42°06' W 009°42'7212.0 190 / 151018.5 5.4 13.112.913.5
2019-Jan-18 12:00N 40°54' W 009°42'6611.0 180 / 111021.3 5.4 12.1 4.514.0
2019-Jan-18 06:00N 39°48' W 009°48'11 9.3 350 / 151021.910.8 13.8 8.914.7
2019-Jan-18 04:51N 39°37' W 009°50'511.9
2019-Jan-18 04:28N 39°33' W 009°50'512.0
2019-Jan-18 04:00N 39°27' W 009°50'612.0
2019-Jan-18 03:30N 39°21' W 009°50'611.7
2019-Jan-18 03:00N 39°16' W 009°50'611.6
2019-Jan-18 02:30N 39°10' W 009°50'611.4
2019-Jan-18 02:00N 39°04' W 009°50'611.4
2019-Jan-18 01:30N 38°58' W 009°50'611.4
2019-Jan-18 01:00N 38°53' W 009°51'611.5
2019-Jan-18 00:30N 38°47' W 009°51'611.2
2019-Jan-18 00:00N 38°41' W 009°50'6427.1
2019-Jan-18 00:00N 38°36' W 009°48'0 1.0 330 / 331022.410.8 14.2 5.715.3
2019-Jan-17 23:30N 38°36' W 009°49'611.3
2019-Jan-17 23:00N 38°30' W 009°47'611.8
2019-Jan-17 22:30N 38°25' W 009°45'612.0
2019-Jan-17 22:00N 38°19' W 009°43'611.9
2019-Jan-17 21:30N 38°13' W 009°42'611.7
2019-Jan-17 21:00N 38°07' W 009°40'611.6
2019-Jan-17 20:30N 38°02' W 009°39'611.8
2019-Jan-17 20:00N 37°56' W 009°37'611.7
2019-Jan-17 19:30N 37°50' W 009°36'612.1
2019-Jan-17 19:00N 37°44' W 009°34'612.0
2019-Jan-17 18:30N 37°38' W 009°32'1120.4
2019-Jan-17 18:00N 37°30' W 009°24'427.4 340 / 221019.510.8 14.010.715.7
2019-Jan-17 17:50N 37°31' W 009°29'1512.0
2019-Jan-17 16:35N 37°16' W 009°25'1512.0
2019-Jan-17 15:21N 37°02' W 009°21'612.1
2019-Jan-17 14:50N 36°55' W 009°20'412.0
2019-Jan-17 14:30N 36°52' W 009°17'612.1
2019-Jan-17 14:00N 36°47' W 009°12'611.6
2019-Jan-17 13:27N 36°44' W 009°06'612.1
2019-Jan-17 12:59N 36°42' W 008°59'612.1
2019-Jan-17 12:30N 36°40' W 008°52'612.1
2019-Jan-17 12:00N 36°38' W 008°45'612.1
2019-Jan-17 11:30N 36°36' W 008°38'611.9
2019-Jan-17 10:59N 36°35' W 008°30'1011.9
2019-Jan-17 10:07N 36°32' W 008°18'511.9
2019-Jan-17 09:43N 36°31' W 008°12'5214.0
2019-Jan-17 06:00N 36°12' W 007°12'   010 / 101017.510.8 14.112.216.9
Track history (hours):
 
Tides and Currents Weather Stations Pressure Air Temp Water Temp Dewpoint Dewpoint Depression Visibility Wind Speed Wind Dir Waves Ship Positions

Spiegelgracht

Last reported at 2019-Jan-22 02:50 UTC. Time now 2019-Jan-23 01:19 UTC.
Position N 53°52' E 004°60'.

Length 168 m; beam 25 m.

Type: Cargo ship. MMSI: 245789000.

Date/timePositionNaut miles runAvg speedWind from/ knotsBaromVisibWave heightAir tempDewpointWater temp
2019-Jan-22 02:50N 53°52' E 004°60'411.9
2019-Jan-22 02:30N 53°48' E 004°57'612.0
2019-Jan-22 02:00N 53°43' E 004°53'612.0
2019-Jan-22 01:30N 53°37' E 004°50'611.8
2019-Jan-22 01:00N 53°31' E 004°46'611.8
2019-Jan-22 00:30N 53°26' E 004°43'611.6
2019-Jan-22 00:00N 53°20' E 004°40'611.7
2019-Jan-21 23:30N 53°15' E 004°35'611.6
2019-Jan-21 23:00N 53°10' E 004°31'611.4
2019-Jan-21 22:30N 53°05' E 004°26'611.2
2019-Jan-21 22:00N 53°00' E 004°22'611.1
2019-Jan-21 21:30N 52°55' E 004°18'611.0
2019-Jan-21 21:00N 52°51' E 004°13'510.8
2019-Jan-21 20:30N 52°46' E 004°09'611.0
2019-Jan-21 20:00N 52°42' E 004°03'611.3
2019-Jan-21 19:30N 52°38' E 003°56'611.6
2019-Jan-21 19:00N 52°34' E 003°50'612.0
2019-Jan-21 18:30N 52°29' E 003°42'612.3
2019-Jan-21 18:01N 52°25' E 003°35'612.6
2019-Jan-21 17:30N 52°21' E 003°28'712.9
2019-Jan-21 17:00N 52°16' E 003°21'713.1
2019-Jan-21 16:30N 52°11' E 003°14'1215.3
2019-Jan-21 15:44N 52°02' E 003°01'313.5
2019-Jan-21 15:30N 51°60' E 002°58'1513.7
2019-Jan-21 14:26N 51°49' E 002°42'713.9
2019-Jan-21 13:56N 51°43' E 002°35'714.1
2019-Jan-21 13:28N 51°38' E 002°28'714.0
2019-Jan-21 12:59N 51°33' E 002°21'714.0
2019-Jan-21 12:30N 51°28' E 002°13'1113.5
2019-Jan-21 11:41N 51°18' E 002°07'313.7
2019-Jan-21 11:27N 51°15' E 002°05'612.8
2019-Jan-21 11:00N 51°12' E 001°58'713.4
2019-Jan-21 10:30N 51°08' E 001°49'712.9
2019-Jan-21 09:56N 51°03' E 001°41'612.2
2019-Jan-21 09:25N 50°59' E 001°33'511.5
2019-Jan-21 08:58N 50°55' E 001°27'510.6
2019-Jan-21 08:30N 50°51' E 001°25'610.7
2019-Jan-21 07:59N 50°45' E 001°23'3910.3
2019-Jan-21 04:09N 50°25' E 000°30'710.4
2019-Jan-21 03:30N 50°23' E 000°19'510.3
2019-Jan-21 03:00N 50°21' E 000°12'5 9.9
2019-Jan-21 02:30N 50°20' E 000°04'5 9.8
2019-Jan-21 02:00N 50°19' W 000°03'5 9.8
2019-Jan-21 01:30N 50°17' W 000°10'5 9.7
2019-Jan-21 01:00N 50°16' W 000°18'5 9.7
2019-Jan-21 00:30N 50°15' W 000°25'5 9.8
2019-Jan-21 00:00N 50°14' W 000°32'2142.4
2019-Jan-21 00:00N 50°12' W 000°30'613.2 060 / 151023.8 5.4 5.7-0.510.4
2019-Jan-20 23:30N 50°12' W 000°40'510.7
2019-Jan-20 23:00N 50°11' W 000°48'611.4
2019-Jan-20 22:30N 50°09' W 000°57'612.4
2019-Jan-20 22:01N 50°08' W 001°06'713.1
2019-Jan-20 21:30N 50°06' W 001°16'713.8
2019-Jan-20 21:00N 50°04' W 001°26'714.5
2019-Jan-20 20:30N 50°02' W 001°37'815.1
2019-Jan-20 20:00N 49°60' W 001°48'815.4
2019-Jan-20 19:30N 49°58' W 001°60'815.3
2019-Jan-20 19:00N 49°56' W 002°11'914.7
2019-Jan-20 18:25N 49°54' W 002°24'614.1
2019-Jan-20 17:59N 49°52' W 002°33'713.7
2019-Jan-20 17:30N 49°50' W 002°43'713.3
2019-Jan-20 17:00N 49°48' W 002°53'813.6
2019-Jan-20 16:23N 49°44' W 003°04'615.8
2019-Jan-20 16:00N 49°41' W 003°12'5112.8
2019-Jan-20 12:00N 49°12' W 004°18'19 9.8 040 / 151018.310.8 10.3 3.911.2
2019-Jan-20 10:04N 49°06' W 004°45'310.3
2019-Jan-20 09:46N 49°04' W 004°49'310.2
2019-Jan-20 09:30N 49°03' W 004°53'510.2
2019-Jan-20 09:00N 49°00' W 004°59'510.2
2019-Jan-20 08:30N 48°58' W 005°06'510.2
2019-Jan-20 08:00N 48°55' W 005°13'510.4
2019-Jan-20 07:31N 48°53' W 005°20'510.6
2019-Jan-20 07:01N 48°50' W 005°27'510.9
2019-Jan-20 06:30N 48°47' W 005°34'510.7
2019-Jan-20 06:00N 48°43' W 005°39'7512.5
2019-Jan-20 00:00N 47°36' W 006°30'6611.1 300 / 211011.4 5.4 10.3 3.212.1
2019-Jan-19 18:00N 46°36' W 007°12'7412.3 340 / 151009.010.8 11.6 6.612.6
2019-Jan-19 12:00N 45°30' W 008°00'7412.4 190 / 151008.4 5.4 10.3 3.712.8
2019-Jan-19 06:00N 44°24' W 008°48'6711.2 230 / 161010.6 2.2 12.111.812.7
2019-Jan-19 00:00N 43°24' W 009°30'7813.1 280 / 151017.2 5.4 12.8 6.913.3
2019-Jan-18 18:00N 42°06' W 009°42'7212.0 190 / 151018.5 5.4 13.112.913.5
2019-Jan-18 12:00N 40°54' W 009°42'6611.0 180 / 111021.3 5.4 12.1 4.514.0
2019-Jan-18 06:00N 39°48' W 009°48'11 9.3 350 / 151021.910.8 13.8 8.914.7
2019-Jan-18 04:51N 39°37' W 009°50'511.9
2019-Jan-18 04:28N 39°33' W 009°50'512.0
2019-Jan-18 04:00N 39°27' W 009°50'612.0
2019-Jan-18 03:30N 39°21' W 009°50'611.7
2019-Jan-18 03:00N 39°16' W 009°50'611.6
2019-Jan-18 02:30N 39°10' W 009°50'611.4
2019-Jan-18 02:00N 39°04' W 009°50'611.4
2019-Jan-18 01:30N 38°58' W 009°50'611.4
2019-Jan-18 01:00N 38°53' W 009°51'611.5
2019-Jan-18 00:30N 38°47' W 009°51'611.2
2019-Jan-18 00:00N 38°41' W 009°50'6427.1
2019-Jan-18 00:00N 38°36' W 009°48'0 1.0 330 / 331022.410.8 14.2 5.715.3
2019-Jan-17 23:30N 38°36' W 009°49'611.3
2019-Jan-17 23:00N 38°30' W 009°47'611.8
2019-Jan-17 22:30N 38°25' W 009°45'612.0
2019-Jan-17 22:00N 38°19' W 009°43'611.9
2019-Jan-17 21:30N 38°13' W 009°42'611.7
2019-Jan-17 21:00N 38°07' W 009°40'611.6
2019-Jan-17 20:30N 38°02' W 009°39'611.8
2019-Jan-17 20:00N 37°56' W 009°37'611.7
2019-Jan-17 19:30N 37°50' W 009°36'612.1
2019-Jan-17 19:00N 37°44' W 009°34'612.0
2019-Jan-17 18:30N 37°38' W 009°32'1120.4
2019-Jan-17 18:00N 37°30' W 009°24'427.4 340 / 221019.510.8 14.010.715.7
2019-Jan-17 17:50N 37°31' W 009°29'1512.0
2019-Jan-17 16:35N 37°16' W 009°25'1512.0
2019-Jan-17 15:21N 37°02' W 009°21'612.1
2019-Jan-17 14:50N 36°55' W 009°20'412.0
2019-Jan-17 14:30N 36°52' W 009°17'612.1
2019-Jan-17 14:00N 36°47' W 009°12'611.6
2019-Jan-17 13:27N 36°44' W 009°06'612.1
2019-Jan-17 12:59N 36°42' W 008°59'612.1
2019-Jan-17 12:30N 36°40' W 008°52'612.1
2019-Jan-17 12:00N 36°38' W 008°45'612.1
2019-Jan-17 11:30N 36°36' W 008°38'611.9
2019-Jan-17 10:59N 36°35' W 008°30'1011.9
2019-Jan-17 10:07N 36°32' W 008°18'511.9
2019-Jan-17 09:43N 36°31' W 008°12'5214.0
2019-Jan-17 06:00N 36°12' W 007°12'   010 / 101017.510.8 14.112.216.9

Dump ship's entire track history